sensor_id;sensor_type;location;lat;lon;timestamp;pressure;altitude;pressure_sealevel;temperature;humidity
7337;BME280;54510;42.016;23.098;2022-11-03T00:01:53;-21597.19;;;16.86;46.57
7337;BME280;54510;42.016;23.098;2022-11-03T00:04:20;-21601.59;;;17.03;46.22
7337;BME280;54510;42.016;23.098;2022-11-03T00:06:48;-21603.25;;;17.09;46.60
7337;BME280;54510;42.016;23.098;2022-11-03T00:09:16;-21598.44;;;16.91;47.10
7337;BME280;54510;42.016;23.098;2022-11-03T00:11:43;-21601.44;;;17.02;46.47
7337;BME280;54510;42.016;23.098;2022-11-03T00:14:10;-21597.88;;;16.89;46.94
7337;BME280;54510;42.016;23.098;2022-11-03T00:16:36;-21593.06;;;16.71;47.23
7337;BME280;54510;42.016;23.098;2022-11-03T00:19:02;-21584.09;;;16.38;47.97
7337;BME280;54510;42.016;23.098;2022-11-03T00:21:27;-21591.41;;;16.65;47.13
7337;BME280;54510;42.016;23.098;2022-11-03T00:23:53;-21600.50;;;16.98;46.85
7337;BME280;54510;42.016;23.098;2022-11-03T00:26:27;-21596.63;;;16.84;46.88
7337;BME280;54510;42.016;23.098;2022-11-03T00:28:54;-21597.03;;;16.86;46.46
7337;BME280;54510;42.016;23.098;2022-11-03T00:33:46;-21594.00;;;16.75;46.92
7337;BME280;54510;42.016;23.098;2022-11-03T00:36:25;-21598.00;;;16.89;46.99
7337;BME280;54510;42.016;23.098;2022-11-03T00:38:50;-21600.50;;;16.98;46.88
7337;BME280;54510;42.016;23.098;2022-11-03T00:41:17;-21601.72;;;17.03;46.58
7337;BME280;54510;42.016;23.098;2022-11-03T00:43:43;-21599.25;;;16.94;46.35
7337;BME280;54510;42.016;23.098;2022-11-03T00:46:09;-21598.00;;;16.89;46.31
7337;BME280;54510;42.016;23.098;2022-11-03T00:48:35;-21598.16;;;16.90;46.39
7337;BME280;54510;42.016;23.098;2022-11-03T00:53:43;-21592.09;;;16.68;46.91
7337;BME280;54510;42.016;23.098;2022-11-03T00:56:18;-21599.09;;;16.93;46.83
7337;BME280;54510;42.016;23.098;2022-11-03T00:58:44;-21598.16;;;16.90;46.32
7337;BME280;54510;42.016;23.098;2022-11-03T01:01:17;-21599.09;;;16.93;46.33
7337;BME280;54510;42.016;23.098;2022-11-03T01:03:45;-21599.38;;;16.94;46.20
7337;BME280;54510;42.016;23.098;2022-11-03T01:06:36;-21599.25;;;16.94;46.31
7337;BME280;54510;42.016;23.098;2022-11-03T01:09:14;-21593.88;;;16.74;46.06
7337;BME280;54510;42.016;23.098;2022-11-03T01:11:40;-21595.25;;;16.79;46.47
7337;BME280;54510;42.016;23.098;2022-11-03T01:14:13;-21594.72;;;16.77;46.76
7337;BME280;54510;42.016;23.098;2022-11-03T01:16:40;-21592.09;;;16.68;46.91
7337;BME280;54510;42.016;23.098;2022-11-03T01:19:05;-21592.09;;;16.68;46.96
7337;BME280;54510;42.016;23.098;2022-11-03T01:21:31;-21595.25;;;16.79;47.10
7337;BME280;54510;42.016;23.098;2022-11-03T01:23:59;-21595.81;;;16.81;46.92
7337;BME280;54510;42.016;23.098;2022-11-03T01:26:25;-21599.94;;;16.96;46.36
7337;BME280;54510;42.016;23.098;2022-11-03T01:28:50;-21597.31;;;16.87;46.40
7337;BME280;54510;42.016;23.098;2022-11-03T01:31:21;-21598.00;;;16.89;46.52
7337;BME280;54510;42.016;23.098;2022-11-03T01:33:49;-21595.81;;;16.81;46.34
7337;BME280;54510;42.016;23.098;2022-11-03T01:36:16;-21593.59;;;16.73;46.60
7337;BME280;54510;42.016;23.098;2022-11-03T01:38:42;-21599.81;;;16.96;46.45
7337;BME280;54510;42.016;23.098;2022-11-03T01:41:12;-21597.19;;;16.86;46.45
7337;BME280;54510;42.016;23.098;2022-11-03T01:43:38;-21598.00;;;16.89;46.35
7337;BME280;54510;42.016;23.098;2022-11-03T01:46:22;-21592.78;;;16.70;46.91
7337;BME280;54510;42.016;23.098;2022-11-03T01:49:02;-21588.50;;;16.54;47.31
7337;BME280;54510;42.016;23.098;2022-11-03T01:51:31;-21590.84;;;16.63;47.47
7337;BME280;54510;42.016;23.098;2022-11-03T01:54:03;-21585.88;;;16.45;47.13
7337;BME280;54510;42.016;23.098;2022-11-03T01:56:32;-21588.22;;;16.53;47.44
7337;BME280;54510;42.016;23.098;2022-11-03T01:58:59;-21586.56;;;16.47;47.63
7337;BME280;54510;42.016;23.098;2022-11-03T02:01:25;-21590.03;;;16.60;47.36
7337;BME280;54510;42.016;23.098;2022-11-03T02:03:53;-21593.06;;;16.71;46.90
7337;BME280;54510;42.016;23.098;2022-11-03T02:06:22;-21583.81;;;16.37;47.30
7337;BME280;54510;42.016;23.098;2022-11-03T02:09:00;-21579.53;;;16.22;47.60
7337;BME280;54510;42.016;23.098;2022-11-03T02:11:27;-21578.31;;;16.17;47.78
7337;BME280;54510;42.016;23.098;2022-11-03T02:14:12;-21570.16;;;15.87;48.68
7337;BME280;54510;42.016;23.098;2022-11-03T02:16:40;-21570.31;;;15.88;48.71
7337;BME280;54510;42.016;23.098;2022-11-03T02:19:31;-21576.66;;;16.11;48.27
7337;BME280;54510;42.016;23.098;2022-11-03T02:27:06;-21572.38;;;15.95;48.90
7337;BME280;54510;42.016;23.098;2022-11-03T02:29:32;-21563.28;;;15.62;49.36
7337;BME280;54510;42.016;23.098;2022-11-03T02:32:04;-21563.13;;;15.61;49.37
7337;BME280;54510;42.016;23.098;2022-11-03T02:34:39;-21564.25;;;15.65;49.67
7337;BME280;54510;42.016;23.098;2022-11-03T02:40:05;-21550.97;;;15.17;49.79
7337;BME280;54510;42.016;23.098;2022-11-03T02:42:34;-21550.44;;;15.15;49.64
7337;BME280;54510;42.016;23.098;2022-11-03T02:45:03;-21553.88;;;15.27;49.98
7337;BME280;54510;42.016;23.098;2022-11-03T02:47:30;-21555.81;;;15.34;50.27
7337;BME280;54510;42.016;23.098;2022-11-03T02:49:56;-21551.81;;;15.20;50.57
7337;BME280;54510;42.016;23.098;2022-11-03T02:52:48;-21554.16;;;15.28;50.55
7337;BME280;54510;42.016;23.098;2022-11-03T03:00:37;-21561.63;;;15.56;49.57
7337;BME280;54510;42.016;23.098;2022-11-03T03:03:09;-21560.94;;;15.53;49.52
7337;BME280;54510;42.016;23.098;2022-11-03T03:05:39;-21562.16;;;15.58;49.51
7337;BME280;54510;42.016;23.098;2022-11-03T03:08:09;-21553.06;;;15.24;50.01
7337;BME280;54510;42.016;23.098;2022-11-03T03:10:38;-21553.75;;;15.27;50.26
7337;BME280;54510;42.016;23.098;2022-11-03T03:13:06;-21557.47;;;15.40;50.08
7337;BME280;54510;42.016;23.098;2022-11-03T03:15:44;-21555.53;;;15.33;50.00
7337;BME280;54510;42.016;23.098;2022-11-03T03:18:24;-21549.19;;;15.10;50.20
7337;BME280;54510;42.016;23.098;2022-11-03T03:20:59;-21555.25;;;15.32;50.34
7337;BME280;54510;42.016;23.098;2022-11-03T03:23:29;-21553.19;;;15.25;50.07
7337;BME280;54510;42.016;23.098;2022-11-03T03:26:02;-21554.44;;;15.29;50.27
7337;BME280;54510;42.016;23.098;2022-11-03T03:28:50;-21554.72;;;15.30;50.10
7337;BME280;54510;42.016;23.098;2022-11-03T03:31:18;-21558.56;;;15.45;49.88
7337;BME280;54510;42.016;23.098;2022-11-03T03:33:46;-21556.78;;;15.38;49.90
7337;BME280;54510;42.016;23.098;2022-11-03T03:36:15;-21548.78;;;15.09;50.42
7337;BME280;54510;42.016;23.098;2022-11-03T03:38:52;-21547.53;;;15.04;50.62
7337;BME280;54510;42.016;23.098;2022-11-03T03:41:21;-21550.16;;;15.14;50.47
7337;BME280;54510;42.016;23.098;2022-11-03T03:43:50;-21549.59;;;15.12;50.87
7337;BME280;54510;42.016;23.098;2022-11-03T03:46:17;-21544.63;;;14.93;51.30
7337;BME280;54510;42.016;23.098;2022-11-03T03:48:45;-21541.47;;;14.82;51.24
7337;BME280;54510;42.016;23.098;2022-11-03T03:51:11;-21536.06;;;14.62;52.06
7337;BME280;54510;42.016;23.098;2022-11-03T03:53:37;-21536.63;;;14.64;52.14
7337;BME280;54510;42.016;23.098;2022-11-03T03:56:03;-21542.44;;;14.85;51.56
7337;BME280;54510;42.016;23.098;2022-11-03T03:58:30;-21544.22;;;14.92;51.36
7337;BME280;54510;42.016;23.098;2022-11-03T04:00:55;-21544.50;;;14.93;51.26
7337;BME280;54510;42.016;23.098;2022-11-03T04:03:23;-21542.16;;;14.84;51.20
7337;BME280;54510;42.016;23.098;2022-11-03T04:05:48;-21540.63;;;14.79;51.30
7337;BME280;54510;42.016;23.098;2022-11-03T04:08:15;-21539.13;;;14.73;51.47
7337;BME280;54510;42.016;23.098;2022-11-03T04:10:41;-21539.53;;;14.75;51.56
7337;BME280;54510;42.016;23.098;2022-11-03T04:13:27;-21534.28;;;14.55;52.61
7337;BME280;54510;42.016;23.098;2022-11-03T04:16:11;-21528.88;;;14.36;52.75
7337;BME280;54510;42.016;23.098;2022-11-03T04:18:55;-21529.84;;;14.39;52.74
7337;BME280;54510;42.016;23.098;2022-11-03T04:21:39;-21520.88;;;14.06;53.70
7337;BME280;54510;42.016;23.098;2022-11-03T04:24:23;-21525.16;;;14.22;53.82
7337;BME280;54510;42.016;23.098;2022-11-03T04:26:48;-21519.34;;;14.01;53.73
7337;BME280;54510;42.016;23.098;2022-11-03T04:29:14;-21524.31;;;14.19;53.29
7337;BME280;54510;42.016;23.098;2022-11-03T04:31:39;-21527.22;;;14.30;53.04
7337;BME280;54510;42.016;23.098;2022-11-03T04:34:09;-21530.81;;;14.43;52.29
7337;BME280;54510;42.016;23.098;2022-11-03T04:36:36;-21531.53;;;14.45;52.16
7337;BME280;54510;42.016;23.098;2022-11-03T04:39:12;-21528.19;;;14.33;52.09
7337;BME280;54510;42.016;23.098;2022-11-03T04:41:39;-21525.16;;;14.22;52.67
7337;BME280;54510;42.016;23.098;2022-11-03T04:44:10;-21523.22;;;14.15;52.97
7337;BME280;54510;42.016;23.098;2022-11-03T04:46:38;-21529.59;;;14.38;52.43
7337;BME280;54510;42.016;23.098;2022-11-03T04:49:04;-21528.75;;;14.35;52.49
7337;BME280;54510;42.016;23.098;2022-11-03T04:51:32;-21527.66;;;14.31;52.96
7337;BME280;54510;42.016;23.098;2022-11-03T04:54:05;-21522.66;;;14.13;53.15
7337;BME280;54510;42.016;23.098;2022-11-03T04:56:31;-21528.06;;;14.33;52.74
7337;BME280;54510;42.016;23.098;2022-11-03T04:58:58;-21533.72;;;14.53;52.18
7337;BME280;54510;42.016;23.098;2022-11-03T05:01:23;-21530.13;;;14.40;52.31
7337;BME280;54510;42.016;23.098;2022-11-03T05:03:51;-21524.59;;;14.20;52.68
7337;BME280;54510;42.016;23.098;2022-11-03T05:06:27;-21530.97;;;14.43;52.31
7337;BME280;54510;42.016;23.098;2022-11-03T05:09:01;-21534.84;;;14.57;52.00
7337;BME280;54510;42.016;23.098;2022-11-03T05:11:36;-21535.53;;;14.60;51.63
7337;BME280;54510;42.016;23.098;2022-11-03T05:14:19;-21532.91;;;14.50;51.97
7337;BME280;54510;42.016;23.098;2022-11-03T05:16:45;-21532.75;;;14.50;51.88
7337;BME280;54510;42.016;23.098;2022-11-03T05:19:20;-21534.56;;;14.56;51.45
7337;BME280;54510;42.016;23.098;2022-11-03T05:21:47;-21532.91;;;14.50;51.67
7337;BME280;54510;42.016;23.098;2022-11-03T05:24:15;-21519.22;;;14.00;51.77
7337;BME280;54510;42.016;23.098;2022-11-03T05:26:42;-21529.59;;;14.38;51.93
7337;BME280;54510;42.016;23.098;2022-11-03T05:29:13;-21536.50;;;14.63;51.54
7337;BME280;54510;42.016;23.098;2022-11-03T05:31:40;-21537.31;;;14.67;51.30
7337;BME280;54510;42.016;23.098;2022-11-03T05:39:34;-21522.13;;;14.11;53.40
7337;BME280;54510;42.016;23.098;2022-11-03T05:42:02;-21528.34;;;14.34;52.52
7337;BME280;54510;42.016;23.098;2022-11-03T05:44:38;-21533.72;;;14.53;52.12
7337;BME280;54510;42.016;23.098;2022-11-03T05:47:19;-21539.25;;;14.74;51.39
7337;BME280;54510;42.016;23.098;2022-11-03T05:49:48;-21537.88;;;14.69;51.50
7337;BME280;54510;42.016;23.098;2022-11-03T05:52:33;-21531.38;;;14.45;52.12
7337;BME280;54510;42.016;23.098;2022-11-03T05:54:59;-21528.19;;;14.33;52.61
7337;BME280;54510;42.016;23.098;2022-11-03T05:57:28;-21538.16;;;14.70;51.60
7337;BME280;54510;42.016;23.098;2022-11-03T05:59:54;-21532.34;;;14.48;52.02
7337;BME280;54510;42.016;23.098;2022-11-03T06:04:58;-21531.09;;;14.44;52.26
7337;BME280;54510;42.016;23.098;2022-11-03T06:07:25;-21541.19;;;14.81;51.82
7337;BME280;54510;42.016;23.098;2022-11-03T06:09:52;-21546.03;;;14.98;50.87
7337;BME280;54510;42.016;23.098;2022-11-03T06:12:18;-21546.44;;;15.00;50.96
7337;BME280;54510;42.016;23.098;2022-11-03T06:14:45;-21549.31;;;15.11;50.99
7337;BME280;54510;42.016;23.098;2022-11-03T06:17:22;-21548.91;;;15.09;50.58
7337;BME280;54510;42.016;23.098;2022-11-03T06:19:59;-21557.63;;;15.41;49.93
7337;BME280;54510;42.016;23.098;2022-11-03T06:22:29;-21560.50;;;15.52;49.59
7337;BME280;54510;42.016;23.098;2022-11-03T06:24:58;-21559.69;;;15.49;49.93
7337;BME280;54510;42.016;23.098;2022-11-03T06:27:25;-21560.78;;;15.53;49.75
7337;BME280;54510;42.016;23.098;2022-11-03T06:30:00;-21567.53;;;15.77;49.29
7337;BME280;54510;42.016;23.098;2022-11-03T06:32:26;-21563.41;;;15.62;49.42
7337;BME280;54510;42.016;23.098;2022-11-03T06:34:56;-21566.44;;;15.73;49.37
7337;BME280;54510;42.016;23.098;2022-11-03T06:37:31;-21572.38;;;15.95;49.11
7337;BME280;54510;42.016;23.098;2022-11-03T06:42:36;-21570.03;;;15.87;49.10
7337;BME280;54510;42.016;23.098;2022-11-03T06:45:23;-21565.75;;;15.71;49.61
7337;BME280;54510;42.016;23.098;2022-11-03T06:47:50;-21568.50;;;15.81;49.20
7337;BME280;54510;42.016;23.098;2022-11-03T06:50:32;-21572.38;;;15.95;48.89
7337;BME280;54510;42.016;23.098;2022-11-03T06:53:02;-21576.78;;;16.11;48.56
7337;BME280;54510;42.016;23.098;2022-11-03T06:55:32;-21570.16;;;15.87;49.13
7337;BME280;54510;42.016;23.098;2022-11-03T06:58:02;-21573.47;;;15.99;49.04
7337;BME280;54510;42.016;23.098;2022-11-03T07:00:29;-21571.53;;;15.92;49.53
7337;BME280;54510;42.016;23.098;2022-11-03T07:05:26;-21576.78;;;16.11;48.92
7337;BME280;54510;42.016;23.098;2022-11-03T07:07:54;-21567.28;;;15.76;49.04
7337;BME280;54510;42.016;23.098;2022-11-03T07:10:24;-21572.66;;;15.96;48.51
7337;BME280;54510;42.016;23.098;2022-11-03T07:12:51;-21580.09;;;16.24;48.08
7337;BME280;54510;42.016;23.098;2022-11-03T07:15:37;-21587.13;;;16.49;48.09
7337;BME280;54510;42.016;23.098;2022-11-03T07:20:50;-21598.69;;;16.92;47.28
7337;BME280;54510;42.016;23.098;2022-11-03T07:23:20;-21601.88;;;17.04;46.75
7337;BME280;54510;42.016;23.098;2022-11-03T07:25:52;-21601.88;;;17.04;46.89
7337;BME280;54510;42.016;23.098;2022-11-03T07:28:20;-21610.81;;;17.36;46.53
7337;BME280;54510;42.016;23.098;2022-11-03T07:30:46;-21608.47;;;17.28;46.67
7337;BME280;54510;42.016;23.098;2022-11-03T07:33:20;-21609.44;;;17.31;47.30
7337;BME280;54510;42.016;23.098;2022-11-03T07:35:47;-21615.09;;;17.52;47.04
7337;BME280;54510;42.016;23.098;2022-11-03T07:38:17;-21620.31;;;17.71;45.99
7337;BME280;54510;42.016;23.098;2022-11-03T07:40:42;-21625.13;;;17.89;45.66
7337;BME280;54510;42.016;23.098;2022-11-03T07:43:21;-21625.81;;;17.92;45.93
7337;BME280;54510;42.016;23.098;2022-11-03T07:45:58;-21619.50;;;17.68;45.75
7337;BME280;54510;42.016;23.098;2022-11-03T07:48:47;-21620.03;;;17.70;45.08
7337;BME280;54510;42.016;23.098;2022-11-03T07:51:29;-21632.13;;;18.15;44.35
7337;BME280;54510;42.016;23.098;2022-11-03T07:56:31;-21623.06;;;17.82;44.58
7337;BME280;54510;42.016;23.098;2022-11-03T07:58:59;-21623.19;;;17.82;44.91
7337;BME280;54510;42.016;23.098;2022-11-03T08:01:28;-21624.16;;;17.86;44.60
7337;BME280;54510;42.016;23.098;2022-11-03T08:04:05;-21619.34;;;17.68;45.60
7337;BME280;54510;42.016;23.098;2022-11-03T08:06:31;-21623.63;;;17.84;45.08
7337;BME280;54510;42.016;23.098;2022-11-03T08:08:56;-21628.56;;;18.02;44.99
7337;BME280;54510;42.016;23.098;2022-11-03T08:11:22;-21634.88;;;18.25;44.61
7337;BME280;54510;42.016;23.098;2022-11-03T08:13:51;-21642.03;;;18.51;44.42
7337;BME280;54510;42.016;23.098;2022-11-03T08:16:17;-21647.81;;;18.73;43.29
7337;BME280;54510;42.016;23.098;2022-11-03T08:18:43;-21654.13;;;18.96;43.46
7337;BME280;54510;42.016;23.098;2022-11-03T08:21:09;-21661.00;;;19.21;42.71
7337;BME280;54510;42.016;23.098;2022-11-03T08:23:34;-21660.31;;;19.19;42.58
7337;BME280;54510;42.016;23.098;2022-11-03T08:26:00;-21658.25;;;19.11;42.33
7337;BME280;54510;42.016;23.098;2022-11-03T08:28:25;-21664.44;;;19.34;42.28
7337;BME280;54510;42.016;23.098;2022-11-03T08:30:51;-21667.16;;;19.44;42.17
7337;BME280;54510;42.016;23.098;2022-11-03T08:33:17;-21666.22;;;19.41;41.98
7337;BME280;54510;42.016;23.098;2022-11-03T08:35:43;-21671.97;;;19.62;41.54
7337;BME280;54510;42.016;23.098;2022-11-03T08:38:08;-21675.00;;;19.73;41.36
7337;BME280;54510;42.016;23.098;2022-11-03T08:40:34;-21677.19;;;19.81;41.09
7337;BME280;54510;42.016;23.098;2022-11-03T08:42:59;-21679.13;;;19.88;41.97
7337;BME280;54510;42.016;23.098;2022-11-03T08:45:30;-21677.88;;;19.84;41.91
7337;BME280;54510;42.016;23.098;2022-11-03T08:47:56;-21672.38;;;19.63;41.29
7337;BME280;54510;42.016;23.098;2022-11-03T08:50:22;-21674.44;;;19.71;41.39
7337;BME280;54510;42.016;23.098;2022-11-03T08:52:48;-21677.47;;;19.82;41.30
7337;BME280;54510;42.016;23.098;2022-11-03T08:55:14;-21678.16;;;19.85;40.92
7337;BME280;54510;42.016;23.098;2022-11-03T08:57:39;-21683.63;;;20.05;41.10
7337;BME280;54510;42.016;23.098;2022-11-03T09:00:05;-21685.84;;;20.13;41.64
7337;BME280;54510;42.016;23.098;2022-11-03T09:02:32;-21684.59;;;20.08;43.49
7337;BME280;54510;42.016;23.098;2022-11-03T09:04:57;-21687.63;;;20.20;41.76
7337;BME280;54510;42.016;23.098;2022-11-03T09:07:22;-21690.34;;;20.30;40.82
7337;BME280;54510;42.016;23.098;2022-11-03T09:09:48;-21692.16;;;20.36;41.29
7337;BME280;54510;42.016;23.098;2022-11-03T09:12:13;-21695.97;;;20.50;40.99
7337;BME280;54510;42.016;23.098;2022-11-03T09:14:39;-21692.41;;;20.37;40.53
7337;BME280;54510;42.016;23.098;2022-11-03T09:17:04;-21698.44;;;20.60;40.84
7337;BME280;54510;42.016;23.098;2022-11-03T09:19:29;-21706.25;;;20.88;39.33
7337;BME280;54510;42.016;23.098;2022-11-03T09:21:55;-21712.41;;;21.11;37.94
7337;BME280;54510;42.016;23.098;2022-11-03T09:24:21;-21715.16;;;21.21;38.87
7337;BME280;54510;42.016;23.098;2022-11-03T09:26:46;-21718.31;;;21.33;39.03
7337;BME280;54510;42.016;23.098;2022-11-03T09:29:12;-21720.78;;;21.42;38.36
7337;BME280;54510;42.016;23.098;2022-11-03T09:31:37;-21720.50;;;21.41;38.66
7337;BME280;54510;42.016;23.098;2022-11-03T09:34:03;-21721.59;;;21.45;38.39
7337;BME280;54510;42.016;23.098;2022-11-03T09:36:28;-21727.34;;;21.66;38.27
7337;BME280;54510;42.016;23.098;2022-11-03T09:38:53;-21727.06;;;21.65;37.16
7337;BME280;54510;42.016;23.098;2022-11-03T09:41:19;-21726.94;;;21.65;37.64
7337;BME280;54510;42.016;23.098;2022-11-03T09:43:46;-21730.91;;;21.80;36.34
7337;BME280;54510;42.016;23.098;2022-11-03T09:46:12;-21738.69;;;22.09;36.61
7337;BME280;54510;42.016;23.098;2022-11-03T09:48:38;-21744.72;;;22.31;35.82
7337;BME280;54510;42.016;23.098;2022-11-03T09:51:04;-21747.16;;;22.40;36.26
7337;BME280;54510;42.016;23.098;2022-11-03T09:53:33;-21744.56;;;22.30;37.39
7337;BME280;54510;42.016;23.098;2022-11-03T09:55:58;-21745.66;;;22.34;36.56
7337;BME280;54510;42.016;23.098;2022-11-03T09:58:24;-21745.13;;;22.32;36.64
7337;BME280;54510;42.016;23.098;2022-11-03T10:00:50;-21747.03;;;22.39;36.34
7337;BME280;54510;42.016;23.098;2022-11-03T10:03:16;-21752.22;;;22.59;35.72
7337;BME280;54510;42.016;23.098;2022-11-03T10:05:45;-21751.69;;;22.57;36.26
7337;BME280;54510;42.016;23.098;2022-11-03T10:08:22;-21744.03;;;22.28;37.93
7337;BME280;54510;42.016;23.098;2022-11-03T10:10:49;-21745.13;;;22.32;37.06
7337;BME280;54510;42.016;23.098;2022-11-03T10:13:39;-21749.63;;;22.49;36.82
7337;BME280;54510;42.016;23.098;2022-11-03T10:16:11;-21748.81;;;22.46;36.79
7337;BME280;54510;42.016;23.098;2022-11-03T10:18:39;-21750.72;;;22.53;36.14
7337;BME280;54510;42.016;23.098;2022-11-03T10:21:26;-21751.97;;;22.58;36.53
7337;BME280;54510;42.016;23.098;2022-11-03T10:23:53;-21755.22;;;22.70;35.96
7337;BME280;54510;42.016;23.098;2022-11-03T10:26:19;-21763.56;;;23.01;37.08
7337;BME280;54510;42.016;23.098;2022-11-03T10:29:04;-21763.56;;;23.01;34.71
7337;BME280;54510;42.016;23.098;2022-11-03T10:31:34;-21765.22;;;23.07;35.16
7337;BME280;54510;42.016;23.098;2022-11-03T10:33:59;-21767.25;;;23.14;34.89
7337;BME280;54510;42.016;23.098;2022-11-03T10:36:30;-21769.03;;;23.21;35.21
7337;BME280;54510;42.016;23.098;2022-11-03T10:38:56;-21765.75;;;23.09;35.05
7337;BME280;54510;42.016;23.098;2022-11-03T10:41:26;-21767.25;;;23.14;35.32
7337;BME280;54510;42.016;23.098;2022-11-03T10:44:04;-21766.31;;;23.11;35.75
7337;BME280;54510;42.016;23.098;2022-11-03T10:46:32;-21769.72;;;23.23;36.58
7337;BME280;54510;42.016;23.098;2022-11-03T10:51:34;-21773.00;;;23.36;35.53
7337;BME280;54510;42.016;23.098;2022-11-03T10:54:03;-21775.31;;;23.44;35.00
7337;BME280;54510;42.016;23.098;2022-11-03T10:56:31;-21772.03;;;23.32;34.95
7337;BME280;54510;42.016;23.098;2022-11-03T10:58:59;-21773.41;;;23.37;34.66
7337;BME280;54510;42.016;23.098;2022-11-03T11:01:25;-21777.63;;;23.53;34.99
7337;BME280;54510;42.016;23.098;2022-11-03T11:03:50;-21780.78;;;23.65;34.79
7337;BME280;54510;42.016;23.098;2022-11-03T11:06:22;-21783.63;;;23.75;35.84
7337;BME280;54510;42.016;23.098;2022-11-03T11:08:51;-21787.19;;;23.88;34.78
7337;BME280;54510;42.016;23.098;2022-11-03T11:11:20;-21788.81;;;23.94;35.23
7337;BME280;54510;42.016;23.098;2022-11-03T11:16:52;-21796.19;;;24.22;33.59
7337;BME280;54510;42.016;23.098;2022-11-03T11:19:19;-21799.47;;;24.34;33.20
7337;BME280;54510;42.016;23.098;2022-11-03T11:24:12;-21804.91;;;24.54;34.31
7337;BME280;54510;42.016;23.098;2022-11-03T11:26:38;-21814.59;;;24.90;33.67
7337;BME280;54510;42.016;23.098;2022-11-03T11:31:39;-21810.22;;;24.74;33.93
7337;BME280;54510;42.016;23.098;2022-11-03T11:36:40;-21816.91;;;24.99;34.35
7337;BME280;54510;42.016;23.098;2022-11-03T11:49:42;-21828.06;;;25.40;33.71
7337;BME280;54510;42.016;23.098;2022-11-03T11:52:08;-21832.13;;;25.55;32.33
7337;BME280;54510;42.016;23.098;2022-11-03T11:54:33;-21834.31;;;25.64;31.27
7337;BME280;54510;42.016;23.098;2022-11-03T11:56:59;-21834.59;;;25.65;31.03
7337;BME280;54510;42.016;23.098;2022-11-03T11:59:25;-21840.16;;;25.85;31.28
7337;BME280;54510;42.016;23.098;2022-11-03T12:01:52;-21845.88;;;26.07;31.62
7337;BME280;54510;42.016;23.098;2022-11-03T12:06:47;-21847.09;;;26.11;31.35
7337;BME280;54510;42.016;23.098;2022-11-03T12:09:21;-21846.97;;;26.11;32.35
7337;BME280;54510;42.016;23.098;2022-11-03T12:11:52;-21851.19;;;26.26;31.07
7337;BME280;54510;42.016;23.098;2022-11-03T12:16:56;-21854.16;;;26.38;30.99
7337;BME280;54510;42.016;23.098;2022-11-03T12:22:02;-21851.03;;;26.26;31.42
7337;BME280;54510;42.016;23.098;2022-11-03T12:26:59;-21854.44;;;26.39;30.62
7337;BME280;54510;42.016;23.098;2022-11-03T12:29:25;-21856.63;;;26.47;30.41
7337;BME280;54510;42.016;23.098;2022-11-03T12:31:50;-21864.50;;;26.76;29.97
7337;BME280;54510;42.016;23.098;2022-11-03T12:34:16;-21858.13;;;26.52;29.82
7337;BME280;54510;42.016;23.098;2022-11-03T12:36:45;-21864.75;;;26.77;29.75
7337;BME280;54510;42.016;23.098;2022-11-03T12:39:11;-21869.94;;;26.96;29.77
7337;BME280;54510;42.016;23.098;2022-11-03T12:41:37;-21870.06;;;26.97;28.54
7337;BME280;54510;42.016;23.098;2022-11-03T12:44:03;-21873.19;;;27.08;29.03
7337;BME280;54510;42.016;23.098;2022-11-03T12:46:28;-21875.09;;;27.16;28.95
7337;BME280;54510;42.016;23.098;2022-11-03T12:48:54;-21874.13;;;27.12;29.34
7337;BME280;54510;42.016;23.098;2022-11-03T12:51:23;-21874.00;;;27.11;28.63
7337;BME280;54510;42.016;23.098;2022-11-03T12:53:49;-21876.31;;;27.20;28.93
7337;BME280;54510;42.016;23.098;2022-11-03T12:56:16;-21878.06;;;27.27;28.17
7337;BME280;54510;42.016;23.098;2022-11-03T12:58:42;-21881.88;;;27.41;28.39
7337;BME280;54510;42.016;23.098;2022-11-03T13:01:08;-21879.16;;;27.31;28.51
7337;BME280;54510;42.016;23.098;2022-11-03T13:03:34;-21882.00;;;27.41;29.54
7337;BME280;54510;42.016;23.098;2022-11-03T13:06:02;-21878.63;;;27.29;28.94
7337;BME280;54510;42.016;23.098;2022-11-03T13:08:32;-21879.28;;;27.31;28.73
7337;BME280;54510;42.016;23.098;2022-11-03T13:10:57;-21879.84;;;27.33;30.04
7337;BME280;54510;42.016;23.098;2022-11-03T13:13:23;-21875.91;;;27.19;30.76
7337;BME280;54510;42.016;23.098;2022-11-03T13:15:48;-21870.75;;;26.99;29.18
7337;BME280;54510;42.016;23.098;2022-11-03T13:18:14;-21876.44;;;27.21;29.57
7337;BME280;54510;42.016;23.098;2022-11-03T13:20:39;-21877.38;;;27.24;28.78
7337;BME280;54510;42.016;23.098;2022-11-03T13:23:05;-21874.13;;;27.12;30.31
7337;BME280;54510;42.016;23.098;2022-11-03T13:25:32;-21868.97;;;26.93;30.29
7337;BME280;54510;42.016;23.098;2022-11-03T13:27:57;-21868.56;;;26.91;31.97
7337;BME280;54510;42.016;23.098;2022-11-03T13:30:24;-21869.78;;;26.96;32.78
7337;BME280;54510;42.016;23.098;2022-11-03T13:32:50;-21873.72;;;27.10;30.82
7337;BME280;54510;42.016;23.098;2022-11-03T13:35:15;-21862.88;;;26.70;31.45
7337;BME280;54510;42.016;23.098;2022-11-03T13:37:41;-21863.69;;;26.73;32.99
7337;BME280;54510;42.016;23.098;2022-11-03T13:40:08;-21861.91;;;26.66;29.56
7337;BME280;54510;42.016;23.098;2022-11-03T13:42:34;-21856.75;;;26.47;31.48
7337;BME280;54510;42.016;23.098;2022-11-03T13:44:59;-21860.28;;;26.60;31.20
7337;BME280;54510;42.016;23.098;2022-11-03T13:47:24;-21857.16;;;26.49;30.66
7337;BME280;54510;42.016;23.098;2022-11-03T13:49:50;-21857.84;;;26.51;31.87
7337;BME280;54510;42.016;23.098;2022-11-03T13:52:17;-21857.69;;;26.51;33.08
7337;BME280;54510;42.016;23.098;2022-11-03T13:54:42;-21854.16;;;26.38;34.61
7337;BME280;54510;42.016;23.098;2022-11-03T13:57:08;-21850.38;;;26.23;34.76
7337;BME280;54510;42.016;23.098;2022-11-03T13:59:33;-21852.81;;;26.32;33.91
7337;BME280;54510;42.016;23.098;2022-11-03T14:01:59;-21854.16;;;26.38;34.38
7337;BME280;54510;42.016;23.098;2022-11-03T14:04:25;-21855.25;;;26.42;35.68
7337;BME280;54510;42.016;23.098;2022-11-03T14:06:50;-21854.44;;;26.39;35.58
7337;BME280;54510;42.016;23.098;2022-11-03T14:09:16;-21852.69;;;26.32;34.96
7337;BME280;54510;42.016;23.098;2022-11-03T14:11:41;-21859.75;;;26.58;34.84